sensor_id;sensor_type;location;lat;lon;timestamp;P1;durP1;ratioP1;P2;durP2;ratioP2
37535;SDS011;23379;51.554;6.736;2023-10-19T00:01:10;10.48;;;6.20;;
37535;SDS011;23379;51.554;6.736;2023-10-19T00:03:36;12.05;;;6.30;;
37535;SDS011;23379;51.554;6.736;2023-10-19T00:06:02;10.85;;;6.20;;
37535;SDS011;23379;51.554;6.736;2023-10-19T00:08:30;9.27;;;6.45;;
37535;SDS011;23379;51.554;6.736;2023-10-19T00:11:16;7.60;;;6.03;;
37535;SDS011;23379;51.554;6.736;2023-10-19T00:13:49;9.13;;;6.32;;
37535;SDS011;23379;51.554;6.736;2023-10-19T00:16:15;8.48;;;6.75;;
37535;SDS011;23379;51.554;6.736;2023-10-19T00:18:48;10.50;;;6.43;;
37535;SDS011;23379;51.554;6.736;2023-10-19T00:21:14;9.52;;;6.40;;
37535;SDS011;23379;51.554;6.736;2023-10-19T00:23:50;7.65;;;6.38;;
37535;SDS011;23379;51.554;6.736;2023-10-19T00:26:17;9.73;;;6.70;;
37535;SDS011;23379;51.554;6.736;2023-10-19T00:28:45;8.15;;;5.72;;
37535;SDS011;23379;51.554;6.736;2023-10-19T00:31:13;8.95;;;6.35;;
37535;SDS011;23379;51.554;6.736;2023-10-19T00:33:39;11.60;;;6.20;;
37535;SDS011;23379;51.554;6.736;2023-10-19T00:36:05;8.23;;;6.32;;
37535;SDS011;23379;51.554;6.736;2023-10-19T00:38:41;6.95;;;5.82;;
37535;SDS011;23379;51.554;6.736;2023-10-19T00:41:18;10.15;;;6.63;;
37535;SDS011;23379;51.554;6.736;2023-10-19T00:43:49;12.73;;;7.22;;
37535;SDS011;23379;51.554;6.736;2023-10-19T00:46:19;6.78;;;6.07;;
37535;SDS011;23379;51.554;6.736;2023-10-19T00:51:15;9.25;;;6.25;;
37535;SDS011;23379;51.554;6.736;2023-10-19T00:54:04;9.68;;;6.20;;
37535;SDS011;23379;51.554;6.736;2023-10-19T00:56:37;8.52;;;6.72;;
37535;SDS011;23379;51.554;6.736;2023-10-19T00:59:06;11.15;;;6.72;;
37535;SDS011;23379;51.554;6.736;2023-10-19T01:01:39;9.25;;;6.03;;
37535;SDS011;23379;51.554;6.736;2023-10-19T01:04:10;8.55;;;6.35;;
37535;SDS011;23379;51.554;6.736;2023-10-19T01:06:40;10.75;;;7.03;;
37535;SDS011;23379;51.554;6.736;2023-10-19T01:09:09;9.02;;;6.63;;
37535;SDS011;23379;51.554;6.736;2023-10-19T01:11:41;9.13;;;6.57;;
37535;SDS011;23379;51.554;6.736;2023-10-19T01:14:22;9.02;;;6.45;;
37535;SDS011;23379;51.554;6.736;2023-10-19T01:19:21;9.00;;;7.00;;
37535;SDS011;23379;51.554;6.736;2023-10-19T01:21:52;10.43;;;6.85;;
37535;SDS011;23379;51.554;6.736;2023-10-19T01:24:23;13.57;;;7.18;;
37535;SDS011;23379;51.554;6.736;2023-10-19T01:27:05;12.45;;;7.47;;
37535;SDS011;23379;51.554;6.736;2023-10-19T01:29:34;11.05;;;7.63;;
37535;SDS011;23379;51.554;6.736;2023-10-19T01:32:07;11.20;;;7.18;;
37535;SDS011;23379;51.554;6.736;2023-10-19T01:34:40;8.55;;;6.50;;
37535;SDS011;23379;51.554;6.736;2023-10-19T01:37:05;10.90;;;6.72;;
37535;SDS011;23379;51.554;6.736;2023-10-19T01:39:31;12.77;;;7.22;;
37535;SDS011;23379;51.554;6.736;2023-10-19T01:42:00;11.30;;;7.75;;
37535;SDS011;23379;51.554;6.736;2023-10-19T01:44:25;12.25;;;8.32;;
37535;SDS011;23379;51.554;6.736;2023-10-19T01:46:51;12.77;;;8.00;;
37535;SDS011;23379;51.554;6.736;2023-10-19T01:49:17;12.77;;;7.65;;
37535;SDS011;23379;51.554;6.736;2023-10-19T01:51:52;14.70;;;8.68;;
37535;SDS011;23379;51.554;6.736;2023-10-19T01:54:19;12.60;;;7.88;;
37535;SDS011;23379;51.554;6.736;2023-10-19T01:56:48;12.80;;;7.80;;
37535;SDS011;23379;51.554;6.736;2023-10-19T01:59:24;15.00;;;9.90;;
37535;SDS011;23379;51.554;6.736;2023-10-19T02:01:54;14.18;;;9.32;;
37535;SDS011;23379;51.554;6.736;2023-10-19T02:04:20;16.48;;;8.48;;
37535;SDS011;23379;51.554;6.736;2023-10-19T02:06:46;18.05;;;10.00;;
37535;SDS011;23379;51.554;6.736;2023-10-19T02:09:13;16.83;;;10.02;;
37535;SDS011;23379;51.554;6.736;2023-10-19T02:11:48;21.70;;;10.45;;
37535;SDS011;23379;51.554;6.736;2023-10-19T02:14:22;20.23;;;10.60;;
37535;SDS011;23379;51.554;6.736;2023-10-19T02:16:51;20.05;;;10.90;;
37535;SDS011;23379;51.554;6.736;2023-10-19T02:19:18;21.25;;;12.07;;
37535;SDS011;23379;51.554;6.736;2023-10-19T02:21:47;22.95;;;10.88;;
37535;SDS011;23379;51.554;6.736;2023-10-19T02:24:14;20.60;;;11.27;;
37535;SDS011;23379;51.554;6.736;2023-10-19T02:26:40;24.15;;;12.70;;
37535;SDS011;23379;51.554;6.736;2023-10-19T02:29:07;21.15;;;11.20;;
37535;SDS011;23379;51.554;6.736;2023-10-19T02:31:34;23.58;;;10.55;;
37535;SDS011;23379;51.554;6.736;2023-10-19T02:34:04;29.27;;;10.98;;
37535;SDS011;23379;51.554;6.736;2023-10-19T02:36:32;20.83;;;10.80;;
37535;SDS011;23379;51.554;6.736;2023-10-19T02:38:59;21.45;;;10.50;;
37535;SDS011;23379;51.554;6.736;2023-10-19T02:41:28;19.75;;;10.15;;
37535;SDS011;23379;51.554;6.736;2023-10-19T02:43:54;18.00;;;8.70;;
37535;SDS011;23379;51.554;6.736;2023-10-19T02:46:36;15.73;;;9.10;;
37535;SDS011;23379;51.554;6.736;2023-10-19T02:49:05;17.75;;;8.30;;
37535;SDS011;23379;51.554;6.736;2023-10-19T02:51:38;17.02;;;8.55;;
37535;SDS011;23379;51.554;6.736;2023-10-19T02:54:05;13.45;;;8.00;;
37535;SDS011;23379;51.554;6.736;2023-10-19T02:56:34;14.27;;;7.35;;
37535;SDS011;23379;51.554;6.736;2023-10-19T02:59:01;12.60;;;7.95;;
37535;SDS011;23379;51.554;6.736;2023-10-19T03:01:29;10.15;;;6.55;;
37535;SDS011;23379;51.554;6.736;2023-10-19T03:03:59;14.40;;;6.90;;
37535;SDS011;23379;51.554;6.736;2023-10-19T03:06:30;12.85;;;6.47;;
37535;SDS011;23379;51.554;6.736;2023-10-19T03:08:59;12.23;;;6.38;;
37535;SDS011;23379;51.554;6.736;2023-10-19T03:11:29;9.83;;;6.47;;
37535;SDS011;23379;51.554;6.736;2023-10-19T03:13:57;7.88;;;5.10;;
37535;SDS011;23379;51.554;6.736;2023-10-19T03:16:23;10.15;;;6.30;;
37535;SDS011;23379;51.554;6.736;2023-10-19T03:18:49;11.15;;;5.43;;
37535;SDS011;23379;51.554;6.736;2023-10-19T03:21:18;8.02;;;5.60;;
37535;SDS011;23379;51.554;6.736;2023-10-19T03:23:44;12.18;;;5.80;;
37535;SDS011;23379;51.554;6.736;2023-10-19T03:26:09;11.07;;;5.93;;
37535;SDS011;23379;51.554;6.736;2023-10-19T03:28:49;13.75;;;6.20;;
37535;SDS011;23379;51.554;6.736;2023-10-19T03:31:20;14.65;;;6.40;;
37535;SDS011;23379;51.554;6.736;2023-10-19T03:33:48;10.20;;;5.68;;
37535;SDS011;23379;51.554;6.736;2023-10-19T03:36:15;11.18;;;5.75;;
37535;SDS011;23379;51.554;6.736;2023-10-19T03:38:41;11.57;;;5.95;;
37535;SDS011;23379;51.554;6.736;2023-10-19T03:41:08;12.95;;;5.60;;
37535;SDS011;23379;51.554;6.736;2023-10-19T03:43:34;12.05;;;5.78;;
37535;SDS011;23379;51.554;6.736;2023-10-19T03:46:03;8.07;;;5.60;;
37535;SDS011;23379;51.554;6.736;2023-10-19T03:48:36;8.15;;;5.47;;
37535;SDS011;23379;51.554;6.736;2023-10-19T03:51:03;7.18;;;5.13;;
37535;SDS011;23379;51.554;6.736;2023-10-19T03:53:30;7.95;;;5.43;;
37535;SDS011;23379;51.554;6.736;2023-10-19T03:56:03;11.57;;;5.60;;
37535;SDS011;23379;51.554;6.736;2023-10-19T03:58:32;9.23;;;5.72;;
37535;SDS011;23379;51.554;6.736;2023-10-19T04:00:57;8.18;;;5.20;;
37535;SDS011;23379;51.554;6.736;2023-10-19T04:03:30;9.43;;;5.47;;
37535;SDS011;23379;51.554;6.736;2023-10-19T04:05:56;11.27;;;5.93;;
37535;SDS011;23379;51.554;6.736;2023-10-19T04:08:26;8.35;;;5.43;;
37535;SDS011;23379;51.554;6.736;2023-10-19T04:10:52;7.47;;;4.43;;
37535;SDS011;23379;51.554;6.736;2023-10-19T04:13:33;11.25;;;5.28;;
37535;SDS011;23379;51.554;6.736;2023-10-19T04:16:00;8.30;;;4.85;;
37535;SDS011;23379;51.554;6.736;2023-10-19T04:18:25;8.02;;;4.55;;
37535;SDS011;23379;51.554;6.736;2023-10-19T04:20:51;9.75;;;5.40;;
37535;SDS011;23379;51.554;6.736;2023-10-19T04:23:19;11.07;;;5.03;;
37535;SDS011;23379;51.554;6.736;2023-10-19T04:25:52;10.00;;;5.22;;
37535;SDS011;23379;51.554;6.736;2023-10-19T04:28:17;8.75;;;5.15;;
37535;SDS011;23379;51.554;6.736;2023-10-19T04:30:47;7.93;;;4.65;;
37535;SDS011;23379;51.554;6.736;2023-10-19T04:33:13;9.07;;;4.70;;
37535;SDS011;23379;51.554;6.736;2023-10-19T04:35:41;12.45;;;4.63;;
37535;SDS011;23379;51.554;6.736;2023-10-19T04:38:07;8.98;;;4.63;;
37535;SDS011;23379;51.554;6.736;2023-10-19T04:40:32;8.30;;;4.32;;
37535;SDS011;23379;51.554;6.736;2023-10-19T04:42:57;7.35;;;4.22;;
37535;SDS011;23379;51.554;6.736;2023-10-19T04:45:23;8.07;;;4.57;;
37535;SDS011;23379;51.554;6.736;2023-10-19T04:47:51;8.98;;;4.45;;
37535;SDS011;23379;51.554;6.736;2023-10-19T04:50:17;6.32;;;3.80;;
37535;SDS011;23379;51.554;6.736;2023-10-19T04:52:43;7.00;;;3.95;;
37535;SDS011;23379;51.554;6.736;2023-10-19T04:55:08;4.82;;;3.70;;
37535;SDS011;23379;51.554;6.736;2023-10-19T04:57:33;8.05;;;3.92;;
37535;SDS011;23379;51.554;6.736;2023-10-19T04:59:59;7.32;;;3.50;;
37535;SDS011;23379;51.554;6.736;2023-10-19T05:02:25;4.47;;;3.53;;
37535;SDS011;23379;51.554;6.736;2023-10-19T05:04:50;5.28;;;3.58;;
37535;SDS011;23379;51.554;6.736;2023-10-19T05:07:15;10.63;;;4.10;;
37535;SDS011;23379;51.554;6.736;2023-10-19T05:09:44;7.07;;;4.28;;
37535;SDS011;23379;51.554;6.736;2023-10-19T05:12:10;10.02;;;5.13;;
37535;SDS011;23379;51.554;6.736;2023-10-19T05:14:36;11.80;;;5.45;;
37535;SDS011;23379;51.554;6.736;2023-10-19T05:17:02;10.13;;;4.90;;
37535;SDS011;23379;51.554;6.736;2023-10-19T05:19:31;10.93;;;4.90;;
37535;SDS011;23379;51.554;6.736;2023-10-19T05:21:57;16.00;;;6.05;;
37535;SDS011;23379;51.554;6.736;2023-10-19T05:24:22;13.90;;;5.43;;
37535;SDS011;23379;51.554;6.736;2023-10-19T05:26:48;10.75;;;5.22;;
37535;SDS011;23379;51.554;6.736;2023-10-19T05:29:13;10.55;;;4.43;;
37535;SDS011;23379;51.554;6.736;2023-10-19T05:31:39;9.73;;;4.50;;
37535;SDS011;23379;51.554;6.736;2023-10-19T05:34:04;8.35;;;4.75;;
37535;SDS011;23379;51.554;6.736;2023-10-19T05:36:29;8.38;;;5.28;;
37535;SDS011;23379;51.554;6.736;2023-10-19T05:38:57;13.88;;;6.35;;
37535;SDS011;23379;51.554;6.736;2023-10-19T05:41:22;14.73;;;5.85;;
37535;SDS011;23379;51.554;6.736;2023-10-19T05:43:48;15.98;;;5.85;;
37535;SDS011;23379;51.554;6.736;2023-10-19T05:46:14;9.63;;;5.10;;
37535;SDS011;23379;51.554;6.736;2023-10-19T05:48:43;8.70;;;4.60;;
37535;SDS011;23379;51.554;6.736;2023-10-19T05:51:10;8.10;;;4.10;;
37535;SDS011;23379;51.554;6.736;2023-10-19T05:53:36;8.50;;;4.38;;
37535;SDS011;23379;51.554;6.736;2023-10-19T05:56:02;7.22;;;3.95;;
37535;SDS011;23379;51.554;6.736;2023-10-19T05:58:28;6.95;;;4.20;;
37535;SDS011;23379;51.554;6.736;2023-10-19T06:00:53;9.65;;;4.60;;
37535;SDS011;23379;51.554;6.736;2023-10-19T06:03:23;9.68;;;4.53;;
37535;SDS011;23379;51.554;6.736;2023-10-19T06:05:48;10.82;;;4.60;;
37535;SDS011;23379;51.554;6.736;2023-10-19T06:08:14;6.75;;;3.88;;
37535;SDS011;23379;51.554;6.736;2023-10-19T06:10:39;8.02;;;4.07;;
37535;SDS011;23379;51.554;6.736;2023-10-19T06:13:04;7.63;;;4.22;;
37535;SDS011;23379;51.554;6.736;2023-10-19T06:15:34;6.28;;;3.92;;
37535;SDS011;23379;51.554;6.736;2023-10-19T06:18:00;9.68;;;4.63;;
37535;SDS011;23379;51.554;6.736;2023-10-19T06:20:25;5.93;;;3.67;;
37535;SDS011;23379;51.554;6.736;2023-10-19T06:22:55;12.07;;;3.72;;
37535;SDS011;23379;51.554;6.736;2023-10-19T06:25:22;6.70;;;4.35;;
37535;SDS011;23379;51.554;6.736;2023-10-19T06:27:55;7.60;;;3.78;;
37535;SDS011;23379;51.554;6.736;2023-10-19T06:33:45;6.75;;;4.07;;
37535;SDS011;23379;51.554;6.736;2023-10-19T06:36:10;8.27;;;4.53;;
37535;SDS011;23379;51.554;6.736;2023-10-19T06:38:36;14.50;;;5.15;;
37535;SDS011;23379;51.554;6.736;2023-10-19T06:41:09;11.13;;;4.88;;
37535;SDS011;23379;51.554;6.736;2023-10-19T06:43:36;11.68;;;4.85;;
37535;SDS011;23379;51.554;6.736;2023-10-19T06:46:01;12.18;;;5.68;;
37535;SDS011;23379;51.554;6.736;2023-10-19T06:48:27;9.80;;;4.53;;
37535;SDS011;23379;51.554;6.736;2023-10-19T06:50:52;9.52;;;4.43;;
37535;SDS011;23379;51.554;6.736;2023-10-19T06:53:17;16.73;;;4.60;;
37535;SDS011;23379;51.554;6.736;2023-10-19T06:55:43;9.77;;;4.93;;
37535;SDS011;23379;51.554;6.736;2023-10-19T06:58:08;10.40;;;4.40;;
37535;SDS011;23379;51.554;6.736;2023-10-19T07:00:34;12.05;;;5.15;;
37535;SDS011;23379;51.554;6.736;2023-10-19T07:03:01;10.45;;;4.70;;
37535;SDS011;23379;51.554;6.736;2023-10-19T07:05:27;11.45;;;4.70;;
37535;SDS011;23379;51.554;6.736;2023-10-19T07:07:56;11.55;;;5.05;;
37535;SDS011;23379;51.554;6.736;2023-10-19T07:10:24;8.60;;;4.88;;
37535;SDS011;23379;51.554;6.736;2023-10-19T07:12:51;11.25;;;4.88;;
37535;SDS011;23379;51.554;6.736;2023-10-19T07:15:18;11.32;;;5.00;;
37535;SDS011;23379;51.554;6.736;2023-10-19T07:17:45;12.07;;;4.60;;
37535;SDS011;23379;51.554;6.736;2023-10-19T07:20:12;6.13;;;3.92;;
37535;SDS011;23379;51.554;6.736;2023-10-19T07:23:01;7.20;;;3.88;;
37535;SDS011;23379;51.554;6.736;2023-10-19T07:25:33;7.32;;;3.85;;
37535;SDS011;23379;51.554;6.736;2023-10-19T07:28:07;10.02;;;4.65;;
37535;SDS011;23379;51.554;6.736;2023-10-19T07:30:32;10.00;;;4.28;;
37535;SDS011;23379;51.554;6.736;2023-10-19T07:32:58;11.18;;;4.85;;
37535;SDS011;23379;51.554;6.736;2023-10-19T07:35:24;10.95;;;4.80;;
37535;SDS011;23379;51.554;6.736;2023-10-19T07:37:51;11.57;;;4.50;;
37535;SDS011;23379;51.554;6.736;2023-10-19T07:40:17;8.77;;;4.43;;
37535;SDS011;23379;51.554;6.736;2023-10-19T07:42:46;12.45;;;4.80;;
37535;SDS011;23379;51.554;6.736;2023-10-19T07:45:14;8.68;;;4.63;;
37535;SDS011;23379;51.554;6.736;2023-10-19T07:47:40;10.57;;;4.57;;
37535;SDS011;23379;51.554;6.736;2023-10-19T07:50:07;8.63;;;4.63;;
37535;SDS011;23379;51.554;6.736;2023-10-19T07:52:37;10.07;;;4.28;;
37535;SDS011;23379;51.554;6.736;2023-10-19T07:55:04;11.02;;;5.03;;
37535;SDS011;23379;51.554;6.736;2023-10-19T07:57:31;6.93;;;4.75;;
37535;SDS011;23379;51.554;6.736;2023-10-19T07:59:57;12.02;;;5.50;;
37535;SDS011;23379;51.554;6.736;2023-10-19T08:02:23;8.75;;;4.53;;
37535;SDS011;23379;51.554;6.736;2023-10-19T08:04:49;9.73;;;4.18;;
37535;SDS011;23379;51.554;6.736;2023-10-19T08:07:16;7.45;;;4.20;;
37535;SDS011;23379;51.554;6.736;2023-10-19T08:09:42;8.93;;;4.20;;
37535;SDS011;23379;51.554;6.736;2023-10-19T08:12:08;8.05;;;4.07;;
37535;SDS011;23379;51.554;6.736;2023-10-19T08:14:34;8.43;;;3.95;;
37535;SDS011;23379;51.554;6.736;2023-10-19T08:17:00;10.85;;;3.97;;
37535;SDS011;23379;51.554;6.736;2023-10-19T08:19:27;17.05;;;7.03;;
37535;SDS011;23379;51.554;6.736;2023-10-19T08:21:53;12.90;;;6.70;;
37535;SDS011;23379;51.554;6.736;2023-10-19T08:24:18;11.48;;;6.03;;
37535;SDS011;23379;51.554;6.736;2023-10-19T08:26:46;13.07;;;7.28;;
37535;SDS011;23379;51.554;6.736;2023-10-19T08:29:11;15.05;;;7.53;;
37535;SDS011;23379;51.554;6.736;2023-10-19T08:31:41;15.48;;;6.18;;
37535;SDS011;23379;51.554;6.736;2023-10-19T08:34:07;13.98;;;5.72;;
37535;SDS011;23379;51.554;6.736;2023-10-19T08:36:36;13.18;;;6.00;;
37535;SDS011;23379;51.554;6.736;2023-10-19T08:39:05;10.77;;;5.82;;
37535;SDS011;23379;51.554;6.736;2023-10-19T08:41:37;13.40;;;6.70;;
37535;SDS011;23379;51.554;6.736;2023-10-19T08:44:05;8.75;;;5.38;;
37535;SDS011;23379;51.554;6.736;2023-10-19T08:46:35;10.20;;;5.50;;
37535;SDS011;23379;51.554;6.736;2023-10-19T08:49:05;11.82;;;5.10;;
37535;SDS011;23379;51.554;6.736;2023-10-19T08:51:34;11.43;;;5.15;;
37535;SDS011;23379;51.554;6.736;2023-10-19T08:54:01;9.35;;;5.15;;
37535;SDS011;23379;51.554;6.736;2023-10-19T08:56:27;8.65;;;4.82;;
37535;SDS011;23379;51.554;6.736;2023-10-19T08:58:52;7.70;;;4.88;;
37535;SDS011;23379;51.554;6.736;2023-10-19T09:01:18;5.57;;;4.10;;
37535;SDS011;23379;51.554;6.736;2023-10-19T09:03:45;8.13;;;4.25;;
37535;SDS011;23379;51.554;6.736;2023-10-19T09:06:11;9.35;;;4.32;;
37535;SDS011;23379;51.554;6.736;2023-10-19T09:08:37;7.10;;;3.88;;
37535;SDS011;23379;51.554;6.736;2023-10-19T09:11:09;7.68;;;4.28;;
37535;SDS011;23379;51.554;6.736;2023-10-19T09:13:47;8.52;;;4.20;;
37535;SDS011;23379;51.554;6.736;2023-10-19T09:16:14;5.20;;;3.53;;
37535;SDS011;23379;51.554;6.736;2023-10-19T09:18:47;7.90;;;4.00;;
37535;SDS011;23379;51.554;6.736;2023-10-19T09:21:16;11.77;;;4.38;;
37535;SDS011;23379;51.554;6.736;2023-10-19T09:23:49;11.10;;;4.60;;
37535;SDS011;23379;51.554;6.736;2023-10-19T09:26:16;7.18;;;4.07;;
37535;SDS011;23379;51.554;6.736;2023-10-19T09:28:45;7.63;;;3.63;;
37535;SDS011;23379;51.554;6.736;2023-10-19T09:31:13;10.20;;;4.32;;
37535;SDS011;23379;51.554;6.736;2023-10-19T09:33:41;9.40;;;3.95;;
37535;SDS011;23379;51.554;6.736;2023-10-19T09:36:08;12.15;;;3.97;;
37535;SDS011;23379;51.554;6.736;2023-10-19T09:38:50;13.25;;;4.20;;
37535;SDS011;23379;51.554;6.736;2023-10-19T09:41:22;8.88;;;3.42;;
37535;SDS011;23379;51.554;6.736;2023-10-19T09:43:53;11.55;;;4.00;;
37535;SDS011;23379;51.554;6.736;2023-10-19T09:46:32;9.55;;;4.40;;
37535;SDS011;23379;51.554;6.736;2023-10-19T09:49:00;12.90;;;4.13;;
37535;SDS011;23379;51.554;6.736;2023-10-19T09:51:25;7.18;;;3.75;;
37535;SDS011;23379;51.554;6.736;2023-10-19T09:53:53;8.20;;;3.95;;
37535;SDS011;23379;51.554;6.736;2023-10-19T09:56:32;9.55;;;4.20;;
37535;SDS011;23379;51.554;6.736;2023-10-19T09:59:05;8.63;;;3.88;;
37535;SDS011;23379;51.554;6.736;2023-10-19T10:02:15;10.38;;;4.10;;
37535;SDS011;23379;51.554;6.736;2023-10-19T10:04:40;8.23;;;3.80;;
37535;SDS011;23379;51.554;6.736;2023-10-19T10:07:08;8.65;;;3.65;;
37535;SDS011;23379;51.554;6.736;2023-10-19T10:09:38;10.40;;;3.92;;
37535;SDS011;23379;51.554;6.736;2023-10-19T10:12:18;7.70;;;3.10;;
37535;SDS011;23379;51.554;6.736;2023-10-19T10:15:02;6.47;;;2.78;;
37535;SDS011;23379;51.554;6.736;2023-10-19T10:17:38;4.80;;;1.83;;
37535;SDS011;23379;51.554;6.736;2023-10-19T10:22:35;7.25;;;2.38;;
37535;SDS011;23379;51.554;6.736;2023-10-19T10:25:01;5.10;;;2.00;;
37535;SDS011;23379;51.554;6.736;2023-10-19T10:27:26;5.25;;;2.13;;
37535;SDS011;23379;51.554;6.736;2023-10-19T10:29:56;5.78;;;1.95;;
37535;SDS011;23379;51.554;6.736;2023-10-19T10:35:08;8.32;;;2.42;;
37535;SDS011;23379;51.554;6.736;2023-10-19T10:37:38;8.27;;;2.13;;
37535;SDS011;23379;51.554;6.736;2023-10-19T10:40:05;6.07;;;1.92;;
37535;SDS011;23379;51.554;6.736;2023-10-19T10:42:31;6.45;;;1.88;;
37535;SDS011;23379;51.554;6.736;2023-10-19T10:44:57;7.88;;;1.50;;
37535;SDS011;23379;51.554;6.736;2023-10-19T10:47:23;4.88;;;1.63;;
37535;SDS011;23379;51.554;6.736;2023-10-19T10:49:55;7.55;;;1.58;;
37535;SDS011;23379;51.554;6.736;2023-10-19T10:55:06;6.15;;;1.58;;
37535;SDS011;23379;51.554;6.736;2023-10-19T10:57:36;11.70;;;1.83;;
37535;SDS011;23379;51.554;6.736;2023-10-19T11:02:41;6.25;;;1.63;;
37535;SDS011;23379;51.554;6.736;2023-10-19T11:05:11;7.75;;;1.73;;
37535;SDS011;23379;51.554;6.736;2023-10-19T11:07:39;8.32;;;2.38;;
37535;SDS011;23379;51.554;6.736;2023-10-19T11:10:05;6.97;;;1.52;;
37535;SDS011;23379;51.554;6.736;2023-10-19T11:12:31;5.35;;;1.63;;
37535;SDS011;23379;51.554;6.736;2023-10-19T11:14:57;3.80;;;1.52;;
37535;SDS011;23379;51.554;6.736;2023-10-19T11:17:24;7.05;;;1.92;;
37535;SDS011;23379;51.554;6.736;2023-10-19T11:22:22;7.60;;;2.53;;
37535;SDS011;23379;51.554;6.736;2023-10-19T11:24:49;7.90;;;1.90;;
37535;SDS011;23379;51.554;6.736;2023-10-19T11:27:37;4.80;;;1.77;;
37535;SDS011;23379;51.554;6.736;2023-10-19T11:30:03;7.80;;;2.45;;
37535;SDS011;23379;51.554;6.736;2023-10-19T11:32:35;6.28;;;1.88;;
37535;SDS011;23379;51.554;6.736;2023-10-19T11:35:05;5.70;;;1.98;;
37535;SDS011;23379;51.554;6.736;2023-10-19T11:37:50;9.15;;;2.33;;
37535;SDS011;23379;51.554;6.736;2023-10-19T11:40:17;6.63;;;2.13;;
37535;SDS011;23379;51.554;6.736;2023-10-19T11:42:46;8.85;;;2.40;;
37535;SDS011;23379;51.554;6.736;2023-10-19T11:45:12;6.15;;;1.58;;
37535;SDS011;23379;51.554;6.736;2023-10-19T11:47:38;6.82;;;2.22;;
37535;SDS011;23379;51.554;6.736;2023-10-19T11:50:04;4.00;;;2.20;;
37535;SDS011;23379;51.554;6.736;2023-10-19T11:52:30;13.13;;;2.63;;
37535;SDS011;23379;51.554;6.736;2023-10-19T11:54:56;10.63;;;2.75;;
37535;SDS011;23379;51.554;6.736;2023-10-19T11:57:21;6.75;;;2.30;;
37535;SDS011;23379;51.554;6.736;2023-10-19T11:59:48;4.57;;;1.77;;
37535;SDS011;23379;51.554;6.736;2023-10-19T12:02:18;7.22;;;1.75;;
37535;SDS011;23379;51.554;6.736;2023-10-19T12:04:44;8.23;;;1.55;;
37535;SDS011;23379;51.554;6.736;2023-10-19T12:07:10;4.55;;;1.38;;
37535;SDS011;23379;51.554;6.736;2023-10-19T12:09:36;7.03;;;2.15;;
37535;SDS011;23379;51.554;6.736;2023-10-19T12:12:01;7.85;;;1.70;;
37535;SDS011;23379;51.554;6.736;2023-10-19T12:14:30;6.55;;;2.15;;
37535;SDS011;23379;51.554;6.736;2023-10-19T12:16:57;4.15;;;1.42;;
37535;SDS011;23379;51.554;6.736;2023-10-19T12:19:25;7.05;;;2.25;;
37535;SDS011;23379;51.554;6.736;2023-10-19T12:21:52;10.65;;;2.00;;
37535;SDS011;23379;51.554;6.736;2023-10-19T12:24:17;11.05;;;1.80;;
37535;SDS011;23379;51.554;6.736;2023-10-19T12:26:43;6.63;;;1.65;;
37535;SDS011;23379;51.554;6.736;2023-10-19T12:29:09;6.10;;;1.30;;
37535;SDS011;23379;51.554;6.736;2023-10-19T12:31:36;2.63;;;0.98;;
37535;SDS011;23379;51.554;6.736;2023-10-19T12:34:05;8.07;;;1.88;;
37535;SDS011;23379;51.554;6.736;2023-10-19T12:40:18;10.02;;;1.58;;
37535;SDS011;23379;51.554;6.736;2023-10-19T12:45:28;4.05;;;1.33;;
37535;SDS011;23379;51.554;6.736;2023-10-19T12:47:54;6.15;;;1.80;;
37535;SDS011;23379;51.554;6.736;2023-10-19T12:50:19;5.75;;;1.42;;
37535;SDS011;23379;51.554;6.736;2023-10-19T12:52:51;6.13;;;1.40;;
37535;SDS011;23379;51.554;6.736;2023-10-19T12:55:18;3.85;;;1.10;;
37535;SDS011;23379;51.554;6.736;2023-10-19T12:57:43;7.82;;;1.75;;
37535;SDS011;23379;51.554;6.736;2023-10-19T13:00:09;3.38;;;1.48;;
37535;SDS011;23379;51.554;6.736;2023-10-19T13:02:53;6.38;;;1.55;;
37535;SDS011;23379;51.554;6.736;2023-10-19T13:05:34;5.25;;;1.48;;
37535;SDS011;23379;51.554;6.736;2023-10-19T13:08:02;3.05;;;1.38;;
37535;SDS011;23379;51.554;6.736;2023-10-19T13:10:30;4.63;;;1.35;;
37535;SDS011;23379;51.554;6.736;2023-10-19T13:12:58;8.93;;;1.80;;
37535;SDS011;23379;51.554;6.736;2023-10-19T13:15:31;4.18;;;1.52;;
37535;SDS011;23379;51.554;6.736;2023-10-19T13:18:01;6.35;;;1.70;;
37535;SDS011;23379;51.554;6.736;2023-10-19T13:20:28;5.65;;;1.42;;
37535;SDS011;23379;51.554;6.736;2023-10-19T13:23:07;7.30;;;1.95;;
37535;SDS011;23379;51.554;6.736;2023-10-19T13:25:39;6.72;;;1.63;;
37535;SDS011;23379;51.554;6.736;2023-10-19T13:28:26;6.07;;;1.48;;
37535;SDS011;23379;51.554;6.736;2023-10-19T13:30:52;4.60;;;1.50;;
37535;SDS011;23379;51.554;6.736;2023-10-19T13:33:19;6.82;;;2.03;;
37535;SDS011;23379;51.554;6.736;2023-10-19T13:35:46;4.70;;;1.55;;
37535;SDS011;23379;51.554;6.736;2023-10-19T13:38:13;7.35;;;1.60;;
37535;SDS011;23379;51.554;6.736;2023-10-19T13:40:39;6.82;;;1.90;;
37535;SDS011;23379;51.554;6.736;2023-10-19T13:43:05;8.45;;;1.90;;
37535;SDS011;23379;51.554;6.736;2023-10-19T13:45:33;9.35;;;2.08;;
37535;SDS011;23379;51.554;6.736;2023-10-19T13:48:03;7.93;;;2.10;;
37535;SDS011;23379;51.554;6.736;2023-10-19T13:50:29;7.60;;;2.13;;
37535;SDS011;23379;51.554;6.736;2023-10-19T13:52:55;4.45;;;1.70;;
37535;SDS011;23379;51.554;6.736;2023-10-19T13:55:22;7.70;;;1.80;;
37535;SDS011;23379;51.554;6.736;2023-10-19T13:57:48;8.20;;;1.83;;
37535;SDS011;23379;51.554;6.736;2023-10-19T14:00:15;5.55;;;2.03;;
37535;SDS011;23379;51.554;6.736;2023-10-19T14:02:45;8.70;;;1.92;;
37535;SDS011;23379;51.554;6.736;2023-10-19T14:05:14;6.22;;;2.03;;
37535;SDS011;23379;51.554;6.736;2023-10-19T14:07:40;7.40;;;2.30;;
37535;SDS011;23379;51.554;6.736;2023-10-19T14:10:08;10.95;;;2.13;;
37535;SDS011;23379;51.554;6.736;2023-10-19T14:12:38;11.65;;;2.28;;
37535;SDS011;23379;51.554;6.736;2023-10-19T14:15:08;13.82;;;2.45;;
37535;SDS011;23379;51.554;6.736;2023-10-19T14:17:41;5.30;;;1.77;;
37535;SDS011;23379;51.554;6.736;2023-10-19T14:20:13;7.43;;;1.90;;
37535;SDS011;23379;51.554;6.736;2023-10-19T14:22:44;8.05;;;1.95;;
37535;SDS011;23379;51.554;6.736;2023-10-19T14:25:11;5.80;;;1.98;;
37535;SDS011;23379;51.554;6.736;2023-10-19T14:27:39;8.02;;;1.65;;
37535;SDS011;23379;51.554;6.736;2023-10-19T14:30:04;5.28;;;1.52;;
37535;SDS011;23379;51.554;6.736;2023-10-19T14:32:30;8.98;;;1.92;;
37535;SDS011;23379;51.554;6.736;2023-10-19T14:35:15;8.05;;;2.10;;
37535;SDS011;23379;51.554;6.736;2023-10-19T14:37:47;4.93;;;1.67;;
37535;SDS011;23379;51.554;6.736;2023-10-19T14:40:31;3.92;;;1.60;;
37535;SDS011;23379;51.554;6.736;2023-10-19T14:42:57;6.70;;;2.17;;
37535;SDS011;23379;51.554;6.736;2023-10-19T14:45:24;6.78;;;2.25;;
37535;SDS011;23379;51.554;6.736;2023-10-19T14:47:57;11.27;;;2.35;;
37535;SDS011;23379;51.554;6.736;2023-10-19T14:50:23;9.70;;;2.30;;
37535;SDS011;23379;51.554;6.736;2023-10-19T14:52:53;6.57;;;2.47;;
37535;SDS011;23379;51.554;6.736;2023-10-19T14:55:20;5.22;;;1.75;;
37535;SDS011;23379;51.554;6.736;2023-10-19T14:57:46;6.88;;;2.22;;
37535;SDS011;23379;51.554;6.736;2023-10-19T15:00:14;6.68;;;2.28;;
37535;SDS011;23379;51.554;6.736;2023-10-19T15:02:46;6.40;;;2.38;;
37535;SDS011;23379;51.554;6.736;2023-10-19T15:05:13;8.13;;;2.10;;
37535;SDS011;23379;51.554;6.736;2023-10-19T15:07:41;5.57;;;1.80;;
37535;SDS011;23379;51.554;6.736;2023-10-19T15:10:10;8.98;;;2.08;;
37535;SDS011;23379;51.554;6.736;2023-10-19T15:12:37;4.97;;;2.22;;
37535;SDS011;23379;51.554;6.736;2023-10-19T15:15:03;5.47;;;2.00;;
37535;SDS011;23379;51.554;6.736;2023-10-19T15:17:29;4.53;;;1.83;;
37535;SDS011;23379;51.554;6.736;2023-10-19T15:19:54;8.60;;;2.53;;